sensor_id;sensor_type;location;lat;lon;timestamp;pressure;altitude;pressure_sealevel;temperature
63220;BMP180;49320;52.512;13.448;2024-01-06T00:00:15;100055.00;;;9.20
63220;BMP180;49320;52.512;13.448;2024-01-06T00:02:43;100056.00;;;9.20
63220;BMP180;49320;52.512;13.448;2024-01-06T00:05:10;100057.00;;;9.20
63220;BMP180;49320;52.512;13.448;2024-01-06T00:07:37;100061.00;;;9.20
63220;BMP180;49320;52.512;13.448;2024-01-06T00:10:05;100052.00;;;9.20
63220;BMP180;49320;52.512;13.448;2024-01-06T00:12:32;100056.00;;;9.20
63220;BMP180;49320;52.512;13.448;2024-01-06T00:14:59;100064.00;;;9.20
63220;BMP180;49320;52.512;13.448;2024-01-06T00:17:26;100056.00;;;9.20
63220;BMP180;49320;52.512;13.448;2024-01-06T00:19:53;100070.00;;;9.20
63220;BMP180;49320;52.512;13.448;2024-01-06T00:22:21;100069.00;;;9.20
63220;BMP180;49320;52.512;13.448;2024-01-06T00:24:48;100060.00;;;9.20
63220;BMP180;49320;52.512;13.448;2024-01-06T00:27:15;100054.00;;;9.30
63220;BMP180;49320;52.512;13.448;2024-01-06T00:29:43;100054.00;;;9.30
63220;BMP180;49320;52.512;13.448;2024-01-06T00:32:10;100054.00;;;9.30
63220;BMP180;49320;52.512;13.448;2024-01-06T00:34:37;100050.00;;;9.30
63220;BMP180;49320;52.512;13.448;2024-01-06T00:37:04;100051.00;;;9.30
63220;BMP180;49320;52.512;13.448;2024-01-06T00:39:32;100055.00;;;9.20
63220;BMP180;49320;52.512;13.448;2024-01-06T00:41:58;100065.00;;;9.20
63220;BMP180;49320;52.512;13.448;2024-01-06T00:44:25;100066.00;;;9.20
63220;BMP180;49320;52.512;13.448;2024-01-06T00:46:52;100059.00;;;9.20
63220;BMP180;49320;52.512;13.448;2024-01-06T00:49:19;100064.00;;;9.20
63220;BMP180;49320;52.512;13.448;2024-01-06T00:51:47;100080.00;;;9.20
63220;BMP180;49320;52.512;13.448;2024-01-06T00:54:15;100080.00;;;9.20
63220;BMP180;49320;52.512;13.448;2024-01-06T00:56:41;100081.00;;;9.20
63220;BMP180;49320;52.512;13.448;2024-01-06T00:59:10;100093.00;;;9.20
63220;BMP180;49320;52.512;13.448;2024-01-06T01:01:37;100083.00;;;9.10
63220;BMP180;49320;52.512;13.448;2024-01-06T01:04:04;100081.00;;;9.20
63220;BMP180;49320;52.512;13.448;2024-01-06T01:06:32;100094.00;;;9.20
63220;BMP180;49320;52.512;13.448;2024-01-06T01:08:59;100095.00;;;9.20
63220;BMP180;49320;52.512;13.448;2024-01-06T01:11:26;100092.00;;;9.20
63220;BMP180;49320;52.512;13.448;2024-01-06T01:13:53;100092.00;;;9.30
63220;BMP180;49320;52.512;13.448;2024-01-06T01:16:20;100107.00;;;9.30
63220;BMP180;49320;52.512;13.448;2024-01-06T01:18:47;100112.00;;;9.30
63220;BMP180;49320;52.512;13.448;2024-01-06T01:21:14;100108.00;;;9.30
63220;BMP180;49320;52.512;13.448;2024-01-06T01:23:42;100110.00;;;9.20
63220;BMP180;49320;52.512;13.448;2024-01-06T01:26:10;100107.00;;;9.20
63220;BMP180;49320;52.512;13.448;2024-01-06T01:28:37;100106.00;;;9.20
63220;BMP180;49320;52.512;13.448;2024-01-06T01:31:04;100101.00;;;9.20
63220;BMP180;49320;52.512;13.448;2024-01-06T01:33:31;100103.00;;;9.10
63220;BMP180;49320;52.512;13.448;2024-01-06T01:35:59;100107.00;;;9.10
63220;BMP180;49320;52.512;13.448;2024-01-06T01:38:28;100110.00;;;9.10
63220;BMP180;49320;52.512;13.448;2024-01-06T01:40:55;100099.00;;;9.10
63220;BMP180;49320;52.512;13.448;2024-01-06T01:43:23;100105.00;;;9.10
63220;BMP180;49320;52.512;13.448;2024-01-06T01:45:56;100099.00;;;9.10
63220;BMP180;49320;52.512;13.448;2024-01-06T01:48:24;100108.00;;;9.10
63220;BMP180;49320;52.512;13.448;2024-01-06T01:50:53;100110.00;;;9.10
63220;BMP180;49320;52.512;13.448;2024-01-06T01:53:23;100121.00;;;9.10
63220;BMP180;49320;52.512;13.448;2024-01-06T01:55:51;100112.00;;;9.10
63220;BMP180;49320;52.512;13.448;2024-01-06T01:58:19;100110.00;;;9.00
63220;BMP180;49320;52.512;13.448;2024-01-06T02:00:46;100109.00;;;9.00
63220;BMP180;49320;52.512;13.448;2024-01-06T02:03:13;100115.00;;;9.00
63220;BMP180;49320;52.512;13.448;2024-01-06T02:05:42;100124.00;;;8.90
63220;BMP180;49320;52.512;13.448;2024-01-06T02:08:08;100119.00;;;8.90
63220;BMP180;49320;52.512;13.448;2024-01-06T02:10:36;100115.00;;;8.90
63220;BMP180;49320;52.512;13.448;2024-01-06T02:13:10;100129.00;;;8.90
63220;BMP180;49320;52.512;13.448;2024-01-06T02:15:38;100132.00;;;8.90
63220;BMP180;49320;52.512;13.448;2024-01-06T02:18:06;100135.00;;;8.90
63220;BMP180;49320;52.512;13.448;2024-01-06T02:20:34;100133.00;;;8.90
63220;BMP180;49320;52.512;13.448;2024-01-06T02:23:02;100132.00;;;8.90
63220;BMP180;49320;52.512;13.448;2024-01-06T02:25:29;100116.00;;;8.80
63220;BMP180;49320;52.512;13.448;2024-01-06T02:27:56;100122.00;;;8.80
63220;BMP180;49320;52.512;13.448;2024-01-06T02:30:24;100125.00;;;8.90
63220;BMP180;49320;52.512;13.448;2024-01-06T02:32:51;100131.00;;;8.90
63220;BMP180;49320;52.512;13.448;2024-01-06T02:35:19;100131.00;;;8.90
63220;BMP180;49320;52.512;13.448;2024-01-06T02:37:46;100126.00;;;8.90
63220;BMP180;49320;52.512;13.448;2024-01-06T02:40:14;100128.00;;;8.90
63220;BMP180;49320;52.512;13.448;2024-01-06T02:42:41;100144.00;;;9.00
63220;BMP180;49320;52.512;13.448;2024-01-06T02:45:08;100139.00;;;8.90
63220;BMP180;49320;52.512;13.448;2024-01-06T02:47:38;100150.00;;;8.90
63220;BMP180;49320;52.512;13.448;2024-01-06T02:50:05;100146.00;;;8.90
63220;BMP180;49320;52.512;13.448;2024-01-06T02:52:33;100151.00;;;8.90
63220;BMP180;49320;52.512;13.448;2024-01-06T02:55:00;100147.00;;;8.90
63220;BMP180;49320;52.512;13.448;2024-01-06T02:57:29;100145.00;;;8.90
63220;BMP180;49320;52.512;13.448;2024-01-06T02:59:58;100145.00;;;8.90
63220;BMP180;49320;52.512;13.448;2024-01-06T03:02:24;100149.00;;;8.90
63220;BMP180;49320;52.512;13.448;2024-01-06T03:04:51;100150.00;;;8.90
63220;BMP180;49320;52.512;13.448;2024-01-06T03:07:19;100147.00;;;8.90
63220;BMP180;49320;52.512;13.448;2024-01-06T03:09:46;100151.00;;;8.90
63220;BMP180;49320;52.512;13.448;2024-01-06T03:12:13;100155.00;;;8.90
63220;BMP180;49320;52.512;13.448;2024-01-06T03:14:40;100151.00;;;8.90
63220;BMP180;49320;52.512;13.448;2024-01-06T03:17:08;100154.00;;;8.90
63220;BMP180;49320;52.512;13.448;2024-01-06T03:19:37;100158.00;;;8.90
63220;BMP180;49320;52.512;13.448;2024-01-06T03:22:04;100163.00;;;8.90
63220;BMP180;49320;52.512;13.448;2024-01-06T03:24:32;100153.00;;;8.90
63220;BMP180;49320;52.512;13.448;2024-01-06T03:26:59;100149.00;;;8.90
63220;BMP180;49320;52.512;13.448;2024-01-06T03:29:26;100166.00;;;8.90
63220;BMP180;49320;52.512;13.448;2024-01-06T03:31:54;100156.00;;;9.00
63220;BMP180;49320;52.512;13.448;2024-01-06T03:34:21;100156.00;;;9.00
63220;BMP180;49320;52.512;13.448;2024-01-06T03:36:48;100162.00;;;8.90
63220;BMP180;49320;52.512;13.448;2024-01-06T03:39:15;100172.00;;;8.90
63220;BMP180;49320;52.512;13.448;2024-01-06T03:41:43;100169.00;;;9.00
63220;BMP180;49320;52.512;13.448;2024-01-06T03:44:09;100179.00;;;9.00
63220;BMP180;49320;52.512;13.448;2024-01-06T03:46:37;100169.00;;;9.00
63220;BMP180;49320;52.512;13.448;2024-01-06T03:49:04;100177.00;;;9.00
63220;BMP180;49320;52.512;13.448;2024-01-06T03:51:31;100173.00;;;9.00
63220;BMP180;49320;52.512;13.448;2024-01-06T03:53:58;100181.00;;;9.00
63220;BMP180;49320;52.512;13.448;2024-01-06T03:56:25;100171.00;;;8.90
63220;BMP180;49320;52.512;13.448;2024-01-06T03:58:52;100184.00;;;8.90
63220;BMP180;49320;52.512;13.448;2024-01-06T04:01:20;100191.00;;;8.90
63220;BMP180;49320;52.512;13.448;2024-01-06T04:03:48;100183.00;;;8.90
63220;BMP180;49320;52.512;13.448;2024-01-06T04:06:15;100187.00;;;8.90
63220;BMP180;49320;52.512;13.448;2024-01-06T04:08:42;100198.00;;;8.90
63220;BMP180;49320;52.512;13.448;2024-01-06T04:11:09;100200.00;;;8.90
63220;BMP180;49320;52.512;13.448;2024-01-06T04:13:36;100191.00;;;8.90
63220;BMP180;49320;52.512;13.448;2024-01-06T04:16:04;100197.00;;;8.90
63220;BMP180;49320;52.512;13.448;2024-01-06T04:18:31;100190.00;;;8.90
63220;BMP180;49320;52.512;13.448;2024-01-06T04:20:59;100199.00;;;8.90
63220;BMP180;49320;52.512;13.448;2024-01-06T04:23:26;100202.00;;;9.00
63220;BMP180;49320;52.512;13.448;2024-01-06T04:25:53;100197.00;;;9.00
63220;BMP180;49320;52.512;13.448;2024-01-06T04:28:20;100214.00;;;9.00
63220;BMP180;49320;52.512;13.448;2024-01-06T04:30:48;100213.00;;;9.00
63220;BMP180;49320;52.512;13.448;2024-01-06T04:33:15;100217.00;;;9.00
63220;BMP180;49320;52.512;13.448;2024-01-06T04:35:42;100219.00;;;8.90
63220;BMP180;49320;52.512;13.448;2024-01-06T04:38:09;100217.00;;;8.90
63220;BMP180;49320;52.512;13.448;2024-01-06T04:40:36;100227.00;;;8.90
63220;BMP180;49320;52.512;13.448;2024-01-06T04:43:03;100224.00;;;8.90
63220;BMP180;49320;52.512;13.448;2024-01-06T04:45:30;100220.00;;;8.90
63220;BMP180;49320;52.512;13.448;2024-01-06T04:47:58;100229.00;;;8.90
63220;BMP180;49320;52.512;13.448;2024-01-06T04:50:25;100229.00;;;8.80
63220;BMP180;49320;52.512;13.448;2024-01-06T04:52:52;100231.00;;;8.80
63220;BMP180;49320;52.512;13.448;2024-01-06T04:55:19;100242.00;;;8.80
63220;BMP180;49320;52.512;13.448;2024-01-06T04:57:48;100242.00;;;8.90
63220;BMP180;49320;52.512;13.448;2024-01-06T05:00:15;100247.00;;;8.80
63220;BMP180;49320;52.512;13.448;2024-01-06T05:02:42;100251.00;;;8.80
63220;BMP180;49320;52.512;13.448;2024-01-06T05:05:10;100266.00;;;8.80
63220;BMP180;49320;52.512;13.448;2024-01-06T05:07:37;100249.00;;;8.80
63220;BMP180;49320;52.512;13.448;2024-01-06T05:10:04;100254.00;;;8.90
63220;BMP180;49320;52.512;13.448;2024-01-06T05:12:32;100245.00;;;8.80
63220;BMP180;49320;52.512;13.448;2024-01-06T05:15:00;100256.00;;;8.80
63220;BMP180;49320;52.512;13.448;2024-01-06T05:17:27;100249.00;;;8.80
63220;BMP180;49320;52.512;13.448;2024-01-06T05:19:54;100251.00;;;8.80
63220;BMP180;49320;52.512;13.448;2024-01-06T05:22:22;100248.00;;;8.80
63220;BMP180;49320;52.512;13.448;2024-01-06T05:24:49;100250.00;;;8.80
63220;BMP180;49320;52.512;13.448;2024-01-06T05:27:20;100262.00;;;8.80
63220;BMP180;49320;52.512;13.448;2024-01-06T05:29:47;100263.00;;;8.70
63220;BMP180;49320;52.512;13.448;2024-01-06T05:32:16;100251.00;;;8.70
63220;BMP180;49320;52.512;13.448;2024-01-06T05:34:45;100256.00;;;8.70
63220;BMP180;49320;52.512;13.448;2024-01-06T05:37:12;100248.00;;;8.60
63220;BMP180;49320;52.512;13.448;2024-01-06T05:39:40;100268.00;;;8.60
63220;BMP180;49320;52.512;13.448;2024-01-06T05:42:10;100267.00;;;8.60
63220;BMP180;49320;52.512;13.448;2024-01-06T05:44:38;100273.00;;;8.60
63220;BMP180;49320;52.512;13.448;2024-01-06T05:47:06;100285.00;;;8.60
63220;BMP180;49320;52.512;13.448;2024-01-06T05:49:33;100283.00;;;8.60
63220;BMP180;49320;52.512;13.448;2024-01-06T05:52:00;100269.00;;;8.60
63220;BMP180;49320;52.512;13.448;2024-01-06T05:54:27;100278.00;;;8.60
63220;BMP180;49320;52.512;13.448;2024-01-06T05:56:55;100290.00;;;8.60
63220;BMP180;49320;52.512;13.448;2024-01-06T05:59:22;100286.00;;;8.60
63220;BMP180;49320;52.512;13.448;2024-01-06T06:01:49;100289.00;;;8.50
63220;BMP180;49320;52.512;13.448;2024-01-06T06:04:17;100294.00;;;8.60
63220;BMP180;49320;52.512;13.448;2024-01-06T06:06:44;100291.00;;;8.60
63220;BMP180;49320;52.512;13.448;2024-01-06T06:09:11;100294.00;;;8.60
63220;BMP180;49320;52.512;13.448;2024-01-06T06:11:39;100294.00;;;8.60
63220;BMP180;49320;52.512;13.448;2024-01-06T06:14:06;100301.00;;;8.60
63220;BMP180;49320;52.512;13.448;2024-01-06T06:16:33;100316.00;;;8.70
63220;BMP180;49320;52.512;13.448;2024-01-06T06:19:01;100322.00;;;8.60
63220;BMP180;49320;52.512;13.448;2024-01-06T06:21:28;100318.00;;;8.60
63220;BMP180;49320;52.512;13.448;2024-01-06T06:23:55;100331.00;;;8.60
63220;BMP180;49320;52.512;13.448;2024-01-06T06:26:22;100336.00;;;8.70
63220;BMP180;49320;52.512;13.448;2024-01-06T06:28:49;100342.00;;;8.70
63220;BMP180;49320;52.512;13.448;2024-01-06T06:31:16;100349.00;;;8.70
63220;BMP180;49320;52.512;13.448;2024-01-06T06:33:43;100342.00;;;8.70
63220;BMP180;49320;52.512;13.448;2024-01-06T06:36:11;100353.00;;;8.70
63220;BMP180;49320;52.512;13.448;2024-01-06T06:38:37;100348.00;;;8.70
63220;BMP180;49320;52.512;13.448;2024-01-06T06:41:05;100350.00;;;8.60
63220;BMP180;49320;52.512;13.448;2024-01-06T06:43:33;100358.00;;;8.60
63220;BMP180;49320;52.512;13.448;2024-01-06T06:46:00;100371.00;;;8.60
63220;BMP180;49320;52.512;13.448;2024-01-06T06:48:28;100382.00;;;8.60
63220;BMP180;49320;52.512;13.448;2024-01-06T06:50:54;100380.00;;;8.60
63220;BMP180;49320;52.512;13.448;2024-01-06T06:53:21;100384.00;;;8.50
63220;BMP180;49320;52.512;13.448;2024-01-06T06:55:49;100395.00;;;8.50
63220;BMP180;49320;52.512;13.448;2024-01-06T06:58:15;100389.00;;;8.40
63220;BMP180;49320;52.512;13.448;2024-01-06T07:00:42;100396.00;;;8.40
63220;BMP180;49320;52.512;13.448;2024-01-06T07:03:10;100391.00;;;8.40
63220;BMP180;49320;52.512;13.448;2024-01-06T07:05:37;100397.00;;;8.40
63220;BMP180;49320;52.512;13.448;2024-01-06T07:08:06;100410.00;;;8.40
63220;BMP180;49320;52.512;13.448;2024-01-06T07:10:33;100425.00;;;8.40
63220;BMP180;49320;52.512;13.448;2024-01-06T07:13:00;100429.00;;;8.40
63220;BMP180;49320;52.512;13.448;2024-01-06T07:15:27;100420.00;;;8.30
63220;BMP180;49320;52.512;13.448;2024-01-06T07:17:54;100425.00;;;8.30
63220;BMP180;49320;52.512;13.448;2024-01-06T07:20:21;100433.00;;;8.30
63220;BMP180;49320;52.512;13.448;2024-01-06T07:22:49;100430.00;;;8.30
63220;BMP180;49320;52.512;13.448;2024-01-06T07:25:16;100435.00;;;8.30
63220;BMP180;49320;52.512;13.448;2024-01-06T07:27:43;100443.00;;;8.30
63220;BMP180;49320;52.512;13.448;2024-01-06T07:30:11;100445.00;;;8.30
63220;BMP180;49320;52.512;13.448;2024-01-06T07:32:38;100449.00;;;8.30
63220;BMP180;49320;52.512;13.448;2024-01-06T07:35:06;100458.00;;;8.20
63220;BMP180;49320;52.512;13.448;2024-01-06T07:37:34;100449.00;;;8.20
63220;BMP180;49320;52.512;13.448;2024-01-06T07:40:01;100450.00;;;8.10
63220;BMP180;49320;52.512;13.448;2024-01-06T07:42:28;100453.00;;;8.10
63220;BMP180;49320;52.512;13.448;2024-01-06T07:44:55;100446.00;;;8.00
63220;BMP180;49320;52.512;13.448;2024-01-06T07:47:22;100472.00;;;7.90
63220;BMP180;49320;52.512;13.448;2024-01-06T07:49:49;100459.00;;;7.90
63220;BMP180;49320;52.512;13.448;2024-01-06T07:52:16;100473.00;;;7.90
63220;BMP180;49320;52.512;13.448;2024-01-06T07:54:43;100470.00;;;7.80
63220;BMP180;49320;52.512;13.448;2024-01-06T07:57:10;100484.00;;;7.90
63220;BMP180;49320;52.512;13.448;2024-01-06T07:59:38;100487.00;;;7.90
63220;BMP180;49320;52.512;13.448;2024-01-06T08:02:06;100483.00;;;7.90
63220;BMP180;49320;52.512;13.448;2024-01-06T08:04:32;100484.00;;;7.90
63220;BMP180;49320;52.512;13.448;2024-01-06T08:07:00;100493.00;;;7.90
63220;BMP180;49320;52.512;13.448;2024-01-06T08:09:27;100488.00;;;7.90
63220;BMP180;49320;52.512;13.448;2024-01-06T08:11:54;100504.00;;;7.90
63220;BMP180;49320;52.512;13.448;2024-01-06T08:14:21;100512.00;;;7.90
63220;BMP180;49320;52.512;13.448;2024-01-06T08:16:49;100514.00;;;7.80
63220;BMP180;49320;52.512;13.448;2024-01-06T08:19:16;100519.00;;;7.80
63220;BMP180;49320;52.512;13.448;2024-01-06T08:21:43;100509.00;;;7.80
63220;BMP180;49320;52.512;13.448;2024-01-06T08:24:11;100520.00;;;7.80
63220;BMP180;49320;52.512;13.448;2024-01-06T08:26:38;100516.00;;;7.80
63220;BMP180;49320;52.512;13.448;2024-01-06T08:29:05;100516.00;;;7.80
63220;BMP180;49320;52.512;13.448;2024-01-06T08:31:32;100518.00;;;7.70
63220;BMP180;49320;52.512;13.448;2024-01-06T08:34:00;100541.00;;;7.70
63220;BMP180;49320;52.512;13.448;2024-01-06T08:36:28;100527.00;;;7.70
63220;BMP180;49320;52.512;13.448;2024-01-06T08:38:55;100547.00;;;7.70
63220;BMP180;49320;52.512;13.448;2024-01-06T08:41:21;100532.00;;;7.70
63220;BMP180;49320;52.512;13.448;2024-01-06T08:43:49;100549.00;;;7.70
63220;BMP180;49320;52.512;13.448;2024-01-06T08:46:16;100556.00;;;7.70
63220;BMP180;49320;52.512;13.448;2024-01-06T08:48:44;100552.00;;;7.70
63220;BMP180;49320;52.512;13.448;2024-01-06T08:51:11;100552.00;;;7.70
63220;BMP180;49320;52.512;13.448;2024-01-06T08:53:38;100559.00;;;7.70
63220;BMP180;49320;52.512;13.448;2024-01-06T08:56:05;100565.00;;;7.70
63220;BMP180;49320;52.512;13.448;2024-01-06T08:58:33;100567.00;;;7.70
63220;BMP180;49320;52.512;13.448;2024-01-06T09:01:00;100564.00;;;7.80
63220;BMP180;49320;52.512;13.448;2024-01-06T09:03:27;100570.00;;;7.80
63220;BMP180;49320;52.512;13.448;2024-01-06T09:05:57;100572.00;;;7.80
63220;BMP180;49320;52.512;13.448;2024-01-06T09:08:24;100588.00;;;7.80
63220;BMP180;49320;52.512;13.448;2024-01-06T09:10:51;100595.00;;;7.80
63220;BMP180;49320;52.512;13.448;2024-01-06T09:13:22;100590.00;;;7.70
63220;BMP180;49320;52.512;13.448;2024-01-06T09:15:51;100596.00;;;7.70
63220;BMP180;49320;52.512;13.448;2024-01-06T09:18:18;100607.00;;;7.70
63220;BMP180;49320;52.512;13.448;2024-01-06T09:20:45;100600.00;;;7.70
63220;BMP180;49320;52.512;13.448;2024-01-06T09:23:15;100605.00;;;7.80
63220;BMP180;49320;52.512;13.448;2024-01-06T09:25:42;100608.00;;;7.80
63220;BMP180;49320;52.512;13.448;2024-01-06T09:28:10;100605.00;;;7.80
63220;BMP180;49320;52.512;13.448;2024-01-06T09:30:38;100610.00;;;7.80
63220;BMP180;49320;52.512;13.448;2024-01-06T09:33:05;100617.00;;;7.80
63220;BMP180;49320;52.512;13.448;2024-01-06T09:35:32;100619.00;;;7.80
63220;BMP180;49320;52.512;13.448;2024-01-06T09:37:59;100623.00;;;7.80
63220;BMP180;49320;52.512;13.448;2024-01-06T09:40:26;100629.00;;;7.80
63220;BMP180;49320;52.512;13.448;2024-01-06T09:42:54;100627.00;;;7.80
63220;BMP180;49320;52.512;13.448;2024-01-06T09:45:21;100641.00;;;7.80
63220;BMP180;49320;52.512;13.448;2024-01-06T09:47:50;100635.00;;;7.70
63220;BMP180;49320;52.512;13.448;2024-01-06T09:50:19;100626.00;;;7.70
63220;BMP180;49320;52.512;13.448;2024-01-06T09:52:48;100623.00;;;7.70
63220;BMP180;49320;52.512;13.448;2024-01-06T09:55:26;100638.00;;;7.60
63220;BMP180;49320;52.512;13.448;2024-01-06T09:57:54;100646.00;;;7.60
63220;BMP180;49320;52.512;13.448;2024-01-06T10:00:21;100644.00;;;7.70
63220;BMP180;49320;52.512;13.448;2024-01-06T10:02:49;100643.00;;;7.70
63220;BMP180;49320;52.512;13.448;2024-01-06T10:05:18;100654.00;;;7.70
63220;BMP180;49320;52.512;13.448;2024-01-06T10:07:45;100655.00;;;7.80
63220;BMP180;49320;52.512;13.448;2024-01-06T10:10:13;100661.00;;;7.80
63220;BMP180;49320;52.512;13.448;2024-01-06T10:12:42;100663.00;;;7.80
63220;BMP180;49320;52.512;13.448;2024-01-06T10:15:11;100665.00;;;7.80
63220;BMP180;49320;52.512;13.448;2024-01-06T10:17:40;100674.00;;;7.80
63220;BMP180;49320;52.512;13.448;2024-01-06T10:20:10;100664.00;;;7.70
63220;BMP180;49320;52.512;13.448;2024-01-06T10:22:40;100671.00;;;7.80
63220;BMP180;49320;52.512;13.448;2024-01-06T10:25:10;100664.00;;;7.80
63220;BMP180;49320;52.512;13.448;2024-01-06T10:27:41;100652.00;;;7.90
63220;BMP180;49320;52.512;13.448;2024-01-06T10:30:09;100653.00;;;7.80
63220;BMP180;49320;52.512;13.448;2024-01-06T10:32:38;100654.00;;;7.90
63220;BMP180;49320;52.512;13.448;2024-01-06T10:35:06;100654.00;;;7.90
63220;BMP180;49320;52.512;13.448;2024-01-06T10:37:34;100663.00;;;7.90
63220;BMP180;49320;52.512;13.448;2024-01-06T10:40:20;100665.00;;;7.80
63220;BMP180;49320;52.512;13.448;2024-01-06T10:42:48;100669.00;;;7.80
63220;BMP180;49320;52.512;13.448;2024-01-06T10:45:15;100663.00;;;7.80
63220;BMP180;49320;52.512;13.448;2024-01-06T10:47:43;100667.00;;;7.80
63220;BMP180;49320;52.512;13.448;2024-01-06T10:50:11;100665.00;;;7.80
63220;BMP180;49320;52.512;13.448;2024-01-06T10:52:40;100669.00;;;7.80
63220;BMP180;49320;52.512;13.448;2024-01-06T10:55:08;100671.00;;;7.80
63220;BMP180;49320;52.512;13.448;2024-01-06T10:57:38;100667.00;;;7.70
63220;BMP180;49320;52.512;13.448;2024-01-06T11:00:05;100672.00;;;7.70
63220;BMP180;49320;52.512;13.448;2024-01-06T11:02:33;100667.00;;;7.70
63220;BMP180;49320;52.512;13.448;2024-01-06T11:05:01;100667.00;;;7.70
63220;BMP180;49320;52.512;13.448;2024-01-06T11:07:29;100669.00;;;7.70
63220;BMP180;49320;52.512;13.448;2024-01-06T11:10:09;100677.00;;;7.80
63220;BMP180;49320;52.512;13.448;2024-01-06T11:12:37;100672.00;;;7.80
63220;BMP180;49320;52.512;13.448;2024-01-06T11:15:05;100671.00;;;7.80
63220;BMP180;49320;52.512;13.448;2024-01-06T11:18:04;100669.00;;;7.90
63220;BMP180;49320;52.512;13.448;2024-01-06T11:20:31;100656.00;;;7.90
63220;BMP180;49320;52.512;13.448;2024-01-06T11:23:19;100687.00;;;8.00
63220;BMP180;49320;52.512;13.448;2024-01-06T11:25:48;100678.00;;;8.00
63220;BMP180;49320;52.512;13.448;2024-01-06T11:28:16;100694.00;;;8.00
63220;BMP180;49320;52.512;13.448;2024-01-06T11:30:43;100670.00;;;8.00
63220;BMP180;49320;52.512;13.448;2024-01-06T11:33:11;100670.00;;;7.90
63220;BMP180;49320;52.512;13.448;2024-01-06T11:35:38;100680.00;;;7.90
63220;BMP180;49320;52.512;13.448;2024-01-06T11:38:07;100684.00;;;7.90
63220;BMP180;49320;52.512;13.448;2024-01-06T11:40:36;100682.00;;;8.00
63220;BMP180;49320;52.512;13.448;2024-01-06T11:43:11;100671.00;;;8.00
63220;BMP180;49320;52.512;13.448;2024-01-06T11:45:44;100671.00;;;8.00
63220;BMP180;49320;52.512;13.448;2024-01-06T11:48:12;100680.00;;;8.00
63220;BMP180;49320;52.512;13.448;2024-01-06T11:50:40;100665.00;;;8.00
63220;BMP180;49320;52.512;13.448;2024-01-06T11:53:08;100672.00;;;8.00
63220;BMP180;49320;52.512;13.448;2024-01-06T11:55:39;100678.00;;;8.00
63220;BMP180;49320;52.512;13.448;2024-01-06T11:58:06;100671.00;;;8.00
63220;BMP180;49320;52.512;13.448;2024-01-06T12:00:34;100679.00;;;8.00
63220;BMP180;49320;52.512;13.448;2024-01-06T12:03:04;100665.00;;;8.00
63220;BMP180;49320;52.512;13.448;2024-01-06T12:05:30;100678.00;;;8.00
63220;BMP180;49320;52.512;13.448;2024-01-06T12:08:00;100677.00;;;7.90
63220;BMP180;49320;52.512;13.448;2024-01-06T12:10:28;100676.00;;;8.00
63220;BMP180;49320;52.512;13.448;2024-01-06T12:13:04;100672.00;;;7.90
63220;BMP180;49320;52.512;13.448;2024-01-06T12:15:32;100687.00;;;7.90
63220;BMP180;49320;52.512;13.448;2024-01-06T12:18:03;100680.00;;;7.90
63220;BMP180;49320;52.512;13.448;2024-01-06T12:20:31;100686.00;;;7.80
63220;BMP180;49320;52.512;13.448;2024-01-06T12:22:58;100683.00;;;7.80
63220;BMP180;49320;52.512;13.448;2024-01-06T12:25:27;100686.00;;;7.80
63220;BMP180;49320;52.512;13.448;2024-01-06T12:27:55;100687.00;;;7.70
63220;BMP180;49320;52.512;13.448;2024-01-06T12:30:23;100693.00;;;7.70
63220;BMP180;49320;52.512;13.448;2024-01-06T12:32:51;100694.00;;;7.60
63220;BMP180;49320;52.512;13.448;2024-01-06T12:35:21;100696.00;;;7.60
63220;BMP180;49320;52.512;13.448;2024-01-06T12:37:51;100693.00;;;7.60
63220;BMP180;49320;52.512;13.448;2024-01-06T12:40:18;100696.00;;;7.50
63220;BMP180;49320;52.512;13.448;2024-01-06T12:42:47;100697.00;;;7.60
63220;BMP180;49320;52.512;13.448;2024-01-06T12:45:14;100701.00;;;7.60
63220;BMP180;49320;52.512;13.448;2024-01-06T12:47:43;100705.00;;;7.60
63220;BMP180;49320;52.512;13.448;2024-01-06T12:50:10;100704.00;;;7.60
63220;BMP180;49320;52.512;13.448;2024-01-06T12:52:38;100712.00;;;7.60
63220;BMP180;49320;52.512;13.448;2024-01-06T12:55:07;100702.00;;;7.60
63220;BMP180;49320;52.512;13.448;2024-01-06T12:57:35;100713.00;;;7.60
63220;BMP180;49320;52.512;13.448;2024-01-06T13:00:03;100719.00;;;7.60
63220;BMP180;49320;52.512;13.448;2024-01-06T13:02:30;100723.00;;;7.60
63220;BMP180;49320;52.512;13.448;2024-01-06T13:04:58;100721.00;;;7.60
63220;BMP180;49320;52.512;13.448;2024-01-06T13:07:25;100730.00;;;7.60
63220;BMP180;49320;52.512;13.448;2024-01-06T13:09:52;100733.00;;;7.60
63220;BMP180;49320;52.512;13.448;2024-01-06T13:12:20;100733.00;;;7.60
63220;BMP180;49320;52.512;13.448;2024-01-06T13:14:47;100737.00;;;7.60
63220;BMP180;49320;52.512;13.448;2024-01-06T13:17:15;100740.00;;;7.60
63220;BMP180;49320;52.512;13.448;2024-01-06T13:19:41;100740.00;;;7.60
63220;BMP180;49320;52.512;13.448;2024-01-06T13:22:09;100743.00;;;7.60
63220;BMP180;49320;52.512;13.448;2024-01-06T13:24:37;100746.00;;;7.60
63220;BMP180;49320;52.512;13.448;2024-01-06T13:27:05;100755.00;;;7.60
63220;BMP180;49320;52.512;13.448;2024-01-06T13:29:32;100768.00;;;7.60
63220;BMP180;49320;52.512;13.448;2024-01-06T13:32:00;100757.00;;;7.50
63220;BMP180;49320;52.512;13.448;2024-01-06T13:34:27;100772.00;;;7.50
63220;BMP180;49320;52.512;13.448;2024-01-06T13:36:56;100768.00;;;7.40
63220;BMP180;49320;52.512;13.448;2024-01-06T13:39:24;100768.00;;;7.40
63220;BMP180;49320;52.512;13.448;2024-01-06T13:41:51;100769.00;;;7.40
63220;BMP180;49320;52.512;13.448;2024-01-06T13:44:18;100769.00;;;7.30
63220;BMP180;49320;52.512;13.448;2024-01-06T13:46:45;100778.00;;;7.30
63220;BMP180;49320;52.512;13.448;2024-01-06T13:49:13;100785.00;;;7.30
63220;BMP180;49320;52.512;13.448;2024-01-06T13:51:41;100782.00;;;7.30
63220;BMP180;49320;52.512;13.448;2024-01-06T13:54:08;100788.00;;;7.30
63220;BMP180;49320;52.512;13.448;2024-01-06T13:56:36;100783.00;;;7.20
63220;BMP180;49320;52.512;13.448;2024-01-06T13:59:06;100787.00;;;7.30